Wilton, Minnesota
Current Conditions -  °F | °C
As of 5:12 PM on Wednesday 17 Dec 2014 (Local Time) from KBJI Reporting Station
Clear Clear  
Wind Chill: 17°   Ceiling: Unl
Heat Index: 17°   Visibility: 10mi
Dew Point: 12°   Wind: 0mph
Humidity: 81%   Direction: NA
Pressure: 30.27"   Gusts: NA
Location:  47.5°N, 95°W
Report Text: KBJI 172312Z AUTO 00000KT 10SM CLR M08/M11 A3027 RMK AO2 T10851113
Loading
Personal Weather Stations






























Interactive Weather Map New forecast layout! Learn more

10-Day Weather Forecast

Advertisements
Track Severe Weather on mobile